Terminal Aerodrome Forecast
Issued by NWS

Home | Current Version | Previous Version | Text Only | Print | Product List | Glossary On
Versions: 1 2 3 4 5 6 7 8 9 10 11 12 13 14 15
215
FTUS41 KGYX 171733
TAFLEB
TAF
KLEB 171733Z 1718/1818 VRB03KT P6SM SCT200
     FM180700 00000KT P6SM BKN050
     FM181100 VRB03KT 3SM -SN BR OVC025
     FM181500 17003KT 2SM -SN BR OVC007=

USA.gov is the U.S. government's official web portal to all federal, state and local government web resources and services.